createdAt,value
2019-03-11T00:02:49.071Z,7.23
2019-03-11T00:07:54.244Z,7.60
2019-03-11T00:12:59.559Z,7.83
2019-03-11T00:18:05.033Z,8.03
2019-03-11T00:23:09.892Z,7.50
2019-03-11T00:28:34.166Z,8.20
2019-03-11T00:33:39.316Z,8.73
2019-03-11T00:38:44.494Z,9.03
2019-03-11T00:43:49.587Z,7.53
2019-03-11T00:49:13.727Z,9.40
2019-03-11T00:54:30.738Z,7.17
2019-03-11T00:59:36.025Z,7.40
2019-03-11T01:04:41.197Z,8.87
2019-03-11T01:10:06.869Z,9.40
2019-03-11T01:15:12.679Z,7.90
2019-03-11T01:20:18.363Z,7.00
2019-03-11T01:25:42.775Z,7.67
2019-03-11T01:31:07.171Z,7.80
2019-03-11T01:36:12.347Z,8.70
2019-03-11T01:41:36.561Z,7.83
2019-03-11T01:46:41.674Z,5.97
2019-03-11T01:52:06.146Z,5.83
2019-03-11T01:57:11.472Z,7.97
2019-03-11T02:02:16.513Z,5.63
2019-03-11T02:07:34.828Z,6.53
2019-03-11T02:12:40.824Z,5.70
2019-03-11T02:17:58.225Z,5.50
2019-03-11T02:23:13.743Z,7.53
2019-03-11T02:28:38.710Z,5.33
2019-03-11T02:33:45.046Z,4.60
2019-03-11T02:38:50.704Z,5.00
2019-03-11T02:43:56.482Z,6.33
2019-03-11T02:49:21.419Z,5.10
2019-03-11T02:54:46.337Z,5.00
2019-03-11T02:59:52.320Z,5.87
2019-03-11T03:04:59.973Z,4.77
2019-03-11T03:10:24.342Z,5.00
2019-03-11T03:15:29.495Z,4.40
2019-03-11T03:20:34.994Z,5.13
2019-03-11T03:25:40.486Z,3.97
2019-03-11T03:30:45.573Z,4.40
2019-03-11T03:35:51.047Z,4.17
2019-03-11T03:40:56.304Z,3.53
2019-03-11T03:46:01.416Z,3.57
2019-03-11T03:51:25.861Z,4.20
2019-03-11T03:56:30.990Z,2.93
2019-03-11T04:01:55.803Z,2.80
2019-03-11T04:07:01.207Z,3.30
2019-03-11T04:12:25.329Z,2.70
2019-03-11T04:17:30.691Z,1.50
2019-03-11T04:22:35.906Z,2.30
2019-03-11T04:28:00.308Z,1.63
2019-03-11T04:33:05.474Z,2.70
2019-03-11T04:38:10.591Z,1.30
2019-03-11T04:43:15.474Z,2.33
2019-03-11T04:48:20.745Z,1.50
2019-03-11T04:53:26.081Z,1.90
2019-03-11T04:58:50.904Z,2.43
2019-03-11T05:03:56.247Z,1.90
2019-03-11T05:09:01.550Z,1.97
2019-03-11T05:14:25.987Z,1.37
2019-03-11T05:19:42.999Z,1.47
2019-03-11T05:24:49.024Z,1.67
2019-03-11T05:30:15.177Z,3.13
2019-03-11T05:35:30.114Z,1.47
2019-03-11T05:40:54.501Z,2.57
2019-03-11T05:45:59.778Z,2.57
2019-03-11T05:51:05.369Z,2.33
2019-03-11T05:56:10.749Z,2.70
2019-03-11T06:01:16.058Z,2.73
2019-03-11T06:06:22.043Z,2.63
2019-03-11T06:11:27.196Z,2.83
2019-03-11T06:16:32.228Z,2.97
2019-03-11T06:21:39.219Z,4.67
2019-03-11T06:26:44.296Z,3.80
2019-03-11T06:32:08.725Z,3.30
2019-03-11T06:37:14.183Z,3.70
2019-03-11T06:42:19.464Z,3.97
2019-03-11T06:47:24.569Z,3.90
2019-03-11T06:52:29.546Z,4.50
2019-03-11T06:57:34.800Z,5.73
2019-03-11T07:02:40.027Z,5.30
2019-03-11T07:08:04.693Z,5.50
2019-03-11T07:13:19.653Z,5.23
2019-03-11T07:18:25.372Z,5.63
2019-03-11T07:23:30.789Z,4.23
2019-03-11T07:28:35.920Z,5.40
2019-03-11T07:33:41.085Z,5.17
2019-03-11T07:38:46.252Z,5.10
2019-03-11T07:43:51.046Z,3.57
2019-03-11T07:48:56.112Z,3.83
2019-03-11T07:54:01.742Z,2.83
2019-03-11T07:59:06.905Z,2.73
2019-03-11T08:04:12.421Z,3.50
2019-03-11T08:09:17.370Z,2.50
2019-03-11T08:14:22.316Z,2.40
2019-03-11T08:19:27.340Z,2.30
2019-03-11T08:24:32.580Z,2.50
2019-03-11T08:29:37.867Z,1.27
2019-03-11T08:34:43.272Z,0.77
2019-03-11T08:40:09.513Z,1.10
2019-03-11T08:45:26.158Z,0.90
2019-03-11T08:50:31.276Z,1.10
2019-03-11T08:55:36.510Z,1.10
2019-03-11T09:01:00.959Z,1.47
2019-03-11T09:06:06.365Z,1.53
2019-03-11T09:11:11.535Z,1.80
2019-03-11T09:16:16.978Z,1.57
2019-03-11T09:21:22.716Z,1.80
2019-03-11T09:26:47.596Z,2.90
2019-03-11T09:31:53.108Z,2.40
2019-03-11T09:36:58.776Z,2.30
2019-03-11T09:42:04.427Z,2.37
2019-03-11T09:47:28.831Z,1.93
2019-03-11T09:52:33.676Z,2.23
2019-03-11T09:57:58.154Z,2.73
2019-03-11T10:03:22.974Z,2.27
2019-03-11T10:08:28.096Z,2.00
2019-03-11T10:13:33.322Z,3.30
2019-03-11T10:18:58.005Z,2.30
2019-03-11T10:24:03.481Z,2.87
2019-03-11T10:29:08.599Z,3.00
2019-03-11T10:34:13.762Z,3.37
2019-03-11T10:39:18.947Z,3.80
2019-03-11T10:44:24.046Z,5.47
2019-03-11T10:49:29.427Z,6.37
2019-03-11T10:54:34.569Z,7.20
2019-03-11T10:59:39.643Z,7.73
2019-03-11T11:05:04.381Z,9.57
2019-03-11T11:10:12.779Z,10.13
2019-03-11T11:15:20.799Z,9.50
2019-03-11T11:20:26.024Z,9.60
2019-03-11T11:25:35.012Z,9.67
2019-03-11T11:30:40.269Z,8.97
2019-03-11T11:35:45.428Z,9.07
2019-03-11T11:40:50.268Z,7.60
2019-03-11T11:45:55.555Z,5.47
2019-03-11T11:51:01.129Z,5.13
2019-03-11T11:56:06.187Z,4.57
2019-03-11T12:01:31.119Z,4.73
2019-03-11T12:06:36.349Z,4.30
2019-03-11T12:11:41.450Z,5.97
2019-03-11T12:16:46.404Z,4.17
2019-03-11T12:21:51.527Z,3.30
2019-03-11T12:26:56.597Z,3.80
2019-03-11T12:32:01.652Z,3.63
2019-03-11T12:37:26.212Z,4.13
2019-03-11T12:42:50.756Z,4.07
2019-03-11T12:47:56.051Z,3.83
2019-03-11T12:53:21.392Z,2.97
2019-03-11T12:58:26.291Z,4.00
2019-03-11T13:03:31.291Z,3.80
2019-03-11T13:08:36.608Z,2.53
2019-03-11T13:13:41.668Z,2.77
2019-03-11T13:18:46.464Z,3.17
2019-03-11T13:23:51.846Z,3.17
2019-03-11T13:28:56.965Z,3.23
2019-03-11T13:34:02.095Z,2.97
2019-03-11T13:39:08.250Z,3.33
2019-03-11T13:44:13.582Z,3.60
2019-03-11T13:49:18.661Z,3.20
2019-03-11T13:54:24.243Z,3.27
2019-03-11T13:59:29.665Z,4.00
2019-03-11T14:04:34.761Z,3.40
2019-03-11T14:09:39.917Z,4.13
2019-03-11T14:14:45.347Z,3.20
2019-03-11T14:19:50.417Z,3.20
2019-03-11T14:24:56.513Z,2.77
2019-03-11T14:30:01.772Z,3.20
2019-03-11T14:35:29.291Z,3.17
2019-03-11T14:40:34.626Z,3.37
2019-03-11T14:45:39.948Z,3.53
2019-03-11T14:50:45.659Z,3.90
2019-03-11T14:55:50.375Z,5.07
2019-03-11T15:00:55.520Z,3.70
2019-03-11T15:06:00.579Z,4.07
2019-03-11T15:11:05.620Z,4.00
2019-03-11T15:16:29.880Z,4.43
2019-03-11T15:21:34.730Z,5.67
2019-03-11T15:26:39.790Z,5.57
2019-03-11T15:31:44.995Z,5.80
2019-03-11T15:36:50.118Z,7.33
2019-03-11T15:41:55.390Z,6.40
2019-03-11T15:47:00.724Z,5.60
2019-03-11T15:52:05.798Z,5.93
2019-03-11T15:57:11.381Z,5.67
2019-03-11T16:02:16.970Z,5.83
2019-03-11T16:07:21.858Z,7.27
2019-03-11T16:12:26.859Z,6.73
2019-03-11T16:17:51.215Z,7.80
2019-03-11T16:22:56.582Z,7.63
2019-03-11T16:28:01.938Z,8.20
2019-03-11T16:33:06.978Z,8.13
2019-03-11T16:38:11.945Z,8.10
2019-03-11T16:43:17.422Z,11.37
2019-03-11T16:48:22.803Z,10.43
2019-03-11T16:53:27.959Z,8.87
2019-03-11T16:58:33.565Z,8.60
2019-03-11T17:03:38.459Z,9.27
2019-03-11T17:08:43.489Z,8.93
2019-03-11T17:14:07.789Z,7.70
2019-03-11T17:19:13.782Z,7.10
2019-03-11T17:24:31.005Z,8.43
2019-03-11T17:29:35.961Z,9.73
2019-03-11T17:34:41.120Z,8.17
2019-03-11T17:39:46.273Z,8.60
2019-03-11T17:44:51.317Z,10.53
2019-03-11T17:49:56.261Z,11.00
2019-03-11T17:55:21.418Z,11.30
2019-03-11T18:00:55.652Z,12.53
2019-03-11T18:06:11.534Z,11.03
2019-03-11T18:11:10.851Z,10.90
2019-03-11T18:16:15.920Z,10.27
2019-03-11T18:21:40.760Z,10.40
2019-03-11T18:26:45.827Z,15.03
2019-03-11T18:32:01.262Z,13.40
2019-03-11T18:36:57.700Z,12.83
2019-03-11T18:42:02.787Z,12.23
2019-03-11T18:47:07.954Z,12.50
2019-03-11T18:52:13.126Z,13.23
2019-03-11T18:57:37.466Z,12.50
2019-03-11T19:02:54.476Z,15.10
2019-03-11T19:08:09.958Z,13.00
2019-03-11T19:13:14.978Z,14.60
2019-03-11T19:18:20.172Z,17.00
2019-03-11T19:23:37.135Z,15.57
2019-03-11T19:28:42.559Z,14.70
2019-03-11T19:33:47.645Z,16.57
2019-03-11T19:39:12.697Z,18.17
2019-03-11T19:44:18.349Z,21.63
2019-03-11T19:49:23.537Z,26.63
2019-03-11T19:54:28.670Z,32.07
2019-03-11T19:59:53.280Z,27.37
2019-03-11T20:05:10.017Z,25.10
2019-03-11T20:10:26.713Z,26.63
2019-03-11T20:15:43.423Z,26.77
2019-03-11T20:20:50.547Z,24.93
2019-03-11T20:25:55.521Z,31.87
2019-03-11T20:31:00.633Z,24.53
2019-03-11T20:36:05.806Z,22.73
2019-03-11T20:41:10.925Z,22.07
2019-03-11T20:46:16.125Z,22.47
2019-03-11T20:51:21.256Z,20.57
2019-03-11T20:56:26.464Z,23.33
2019-03-11T21:01:31.784Z,19.00
2019-03-11T21:06:56.322Z,19.47
2019-03-11T21:12:01.438Z,18.50
2019-03-11T21:17:06.946Z,19.17
2019-03-11T21:22:12.475Z,22.23
2019-03-11T21:27:17.655Z,18.90
2019-03-11T21:32:24.244Z,23.20
2019-03-11T21:37:29.852Z,17.10
2019-03-11T21:42:37.660Z,15.90
2019-03-11T21:48:01.287Z,15.57
2019-03-11T21:53:26.145Z,15.27
2019-03-11T21:58:31.279Z,17.37
2019-03-11T22:03:55.676Z,15.53
2019-03-11T22:09:20.193Z,18.87
2019-03-11T22:14:25.658Z,18.17
2019-03-11T22:19:30.964Z,18.60
2019-03-11T22:24:36.378Z,21.73
2019-03-11T22:29:41.519Z,19.03
2019-03-11T22:34:46.932Z,20.50
2019-03-11T22:39:52.032Z,19.83
2019-03-11T22:44:57.160Z,17.33
2019-03-11T22:50:21.473Z,18.50
2019-03-11T22:55:26.565Z,15.80
2019-03-11T23:00:54.094Z,15.17
2019-03-11T23:05:59.393Z,15.57
2019-03-11T23:11:04.399Z,13.17
2019-03-11T23:16:09.985Z,14.33
2019-03-11T23:21:15.328Z,13.07
2019-03-11T23:26:20.555Z,15.23
2019-03-11T23:31:44.708Z,14.00
2019-03-11T23:36:51.367Z,14.33
2019-03-11T23:41:56.519Z,11.33
2019-03-11T23:47:02.082Z,13.93
2019-03-11T23:52:07.034Z,12.60
2019-03-11T23:57:31.387Z,15.30
